createdAt,value
2018-05-11T00:00:00.166Z,23.10
2018-05-11T00:01:00.183Z,22.30
2018-05-11T00:02:00.170Z,21.50
2018-05-11T00:03:00.188Z,22.90
2018-05-11T00:04:00.171Z,23.40
2018-05-11T00:05:00.182Z,23.10
2018-05-11T00:06:00.185Z,23.90
2018-05-11T00:07:00.200Z,23.50
2018-05-11T00:08:00.168Z,23.30
2018-05-11T00:09:00.181Z,23.60
2018-05-11T00:10:00.177Z,22.90
2018-05-11T00:11:00.173Z,23.50
2018-05-11T00:12:00.185Z,23.10
2018-05-11T00:13:00.183Z,24.10
2018-05-11T00:14:00.191Z,23.90
2018-05-11T00:15:00.197Z,24.50
2018-05-11T00:16:00.189Z,25.80
2018-05-11T00:17:00.211Z,25.00
2018-05-11T00:18:00.200Z,25.60
2018-05-11T00:19:00.315Z,24.40
2018-05-11T00:20:00.234Z,25.30
2018-05-11T00:21:00.229Z,25.30
2018-05-11T00:22:00.216Z,24.70
2018-05-11T00:23:00.202Z,25.50
2018-05-11T00:24:00.235Z,25.00
2018-05-11T00:25:00.203Z,24.30
2018-05-11T00:26:00.214Z,25.70
2018-05-11T00:27:01.114Z,26.50
2018-05-11T00:28:00.285Z,25.30
2018-05-11T00:29:01.049Z,24.80
2018-05-11T00:30:00.219Z,26.00
2018-05-11T00:31:00.294Z,26.60
2018-05-11T00:32:00.217Z,26.50
2018-05-11T00:33:00.232Z,25.80
2018-05-11T00:34:00.230Z,24.80
2018-05-11T00:35:00.230Z,26.60
2018-05-11T00:36:00.237Z,28.10
2018-05-11T00:37:00.233Z,25.80
2018-05-11T00:38:00.234Z,25.70
2018-05-11T00:39:00.236Z,26.80
2018-05-11T00:40:00.238Z,27.50
2018-05-11T00:41:00.246Z,26.30
2018-05-11T00:42:00.284Z,25.70
2018-05-11T00:43:00.245Z,26.70
2018-05-11T00:44:00.269Z,27.30
2018-05-11T00:45:00.276Z,27.00
2018-05-11T00:46:00.243Z,25.50
2018-05-11T00:47:00.241Z,26.30
2018-05-11T00:48:00.242Z,25.70
2018-05-11T00:49:00.250Z,27.50
2018-05-11T00:50:00.259Z,28.10
2018-05-11T00:51:00.255Z,26.40
2018-05-11T00:52:00.269Z,27.00
2018-05-11T00:53:00.250Z,27.40
2018-05-11T00:54:00.287Z,26.30
2018-05-11T00:55:00.262Z,27.30
2018-05-11T00:56:00.255Z,27.40
2018-05-11T00:57:00.283Z,27.60
2018-05-11T00:58:00.275Z,26.60
2018-05-11T00:59:00.271Z,27.20
2018-05-11T01:00:00.284Z,29.00
2018-05-11T01:01:00.263Z,27.30
2018-05-11T01:02:00.278Z,27.60
2018-05-11T01:03:00.272Z,26.50
2018-05-11T01:04:00.280Z,26.40
2018-05-11T01:05:00.283Z,26.40
2018-05-11T01:06:00.280Z,27.40
2018-05-11T01:07:00.285Z,27.00
2018-05-11T01:08:00.300Z,27.20
2018-05-11T01:09:00.280Z,28.80
2018-05-11T01:10:01.063Z,27.90
2018-05-11T01:11:00.293Z,28.30
2018-05-11T01:12:00.309Z,29.90
2018-05-11T01:13:00.291Z,29.50
2018-05-11T01:14:00.287Z,30.80
2018-05-11T01:15:00.296Z,30.70
2018-05-11T01:16:00.293Z,29.50
2018-05-11T01:17:00.325Z,29.40
2018-05-11T01:18:00.311Z,29.60
2018-05-11T01:19:00.297Z,31.00
2018-05-11T01:20:01.066Z,31.40
2018-05-11T01:21:00.306Z,31.60
2018-05-11T01:22:00.332Z,31.60
2018-05-11T01:23:00.304Z,27.90
2018-05-11T01:24:00.324Z,29.40
2018-05-11T01:25:00.304Z,28.50
2018-05-11T01:26:00.329Z,31.60
2018-05-11T01:27:00.321Z,32.30
2018-05-11T01:28:00.337Z,31.50
2018-05-11T01:29:00.351Z,33.00
2018-05-11T01:30:00.345Z,32.90
2018-05-11T01:31:01.072Z,33.00
2018-05-11T01:32:00.316Z,31.40
2018-05-11T01:33:00.375Z,32.20
2018-05-11T01:34:00.342Z,32.10
2018-05-11T01:35:00.327Z,31.70
2018-05-11T01:36:00.333Z,31.10
2018-05-11T01:37:00.399Z,32.70
2018-05-11T01:38:00.333Z,32.60
2018-05-11T01:39:00.326Z,31.30
2018-05-11T01:40:00.328Z,31.70
2018-05-11T01:41:00.333Z,31.30
2018-05-11T01:42:00.351Z,33.00
2018-05-11T01:43:00.353Z,32.40
2018-05-11T01:44:00.359Z,32.10
2018-05-11T01:45:00.347Z,32.00
2018-05-11T01:46:00.353Z,32.60
2018-05-11T01:47:00.348Z,31.20
2018-05-11T01:48:00.366Z,30.30
2018-05-11T01:49:00.358Z,31.10
2018-05-11T01:50:00.385Z,33.00
2018-05-11T01:51:00.457Z,33.70
2018-05-11T01:52:00.364Z,31.90
2018-05-11T01:53:00.355Z,33.30
2018-05-11T01:54:00.360Z,31.70
2018-05-11T01:55:00.355Z,33.10
2018-05-11T01:56:00.355Z,34.90
2018-05-11T01:57:00.349Z,34.30
2018-05-11T01:58:00.365Z,32.50
2018-05-11T01:59:00.356Z,33.20
2018-05-11T02:00:00.368Z,31.90
2018-05-11T02:01:00.357Z,33.30
2018-05-11T02:02:00.379Z,31.80
2018-05-11T02:03:00.368Z,31.10
2018-05-11T02:04:00.484Z,32.40
2018-05-11T02:05:00.372Z,33.00
2018-05-11T02:06:00.396Z,31.40
2018-05-11T02:07:00.379Z,30.10
2018-05-11T02:08:00.400Z,32.50
2018-05-11T02:09:00.397Z,32.90
2018-05-11T02:10:00.403Z,33.10
2018-05-11T02:11:00.396Z,32.60
2018-05-11T02:12:00.438Z,33.80
2018-05-11T02:13:00.379Z,31.30
2018-05-11T02:14:00.380Z,32.50
2018-05-11T02:15:00.379Z,32.30
2018-05-11T02:16:00.398Z,32.70
2018-05-11T02:17:00.414Z,32.40
2018-05-11T02:18:00.401Z,32.50
2018-05-11T02:19:00.384Z,31.30
2018-05-11T02:20:00.395Z,33.00
2018-05-11T02:21:00.391Z,32.20
2018-05-11T02:22:00.418Z,31.40
2018-05-11T02:23:00.400Z,32.80
2018-05-11T02:24:00.409Z,33.50
2018-05-11T02:25:00.405Z,32.80
2018-05-11T02:26:00.453Z,32.30
2018-05-11T02:27:00.519Z,31.30
2018-05-11T02:28:00.420Z,32.60
2018-05-11T02:29:00.419Z,32.60
2018-05-11T02:30:00.414Z,33.90
2018-05-11T02:31:00.410Z,31.90
2018-05-11T02:32:00.419Z,35.00
2018-05-11T02:33:00.429Z,36.00
2018-05-11T02:34:00.461Z,33.40
2018-05-11T02:35:00.419Z,36.00
2018-05-11T02:36:00.433Z,35.90
2018-05-11T02:37:00.414Z,35.50
2018-05-11T02:38:00.413Z,32.80
2018-05-11T02:39:00.427Z,31.90
2018-05-11T02:40:00.420Z,34.60
2018-05-11T02:41:00.423Z,35.90
2018-05-11T02:42:00.427Z,35.10
2018-05-11T02:43:00.443Z,33.70
2018-05-11T02:44:00.429Z,35.50
2018-05-11T02:45:00.441Z,34.10
2018-05-11T02:46:00.442Z,34.40
2018-05-11T02:47:00.509Z,35.40
2018-05-11T02:48:00.456Z,35.90
2018-05-11T02:49:00.432Z,33.40
2018-05-11T02:50:00.462Z,35.60
2018-05-11T02:51:00.459Z,33.30
2018-05-11T02:52:00.454Z,35.50
2018-05-11T02:53:00.438Z,36.50
2018-05-11T02:54:00.466Z,34.90
2018-05-11T02:55:00.438Z,35.40
2018-05-11T02:56:00.448Z,33.80
2018-05-11T02:57:00.455Z,33.60
2018-05-11T02:58:00.457Z,32.00
2018-05-11T02:59:00.456Z,31.70
2018-05-11T03:00:00.477Z,30.90
2018-05-11T03:01:00.473Z,32.70
2018-05-11T03:02:00.467Z,34.50
2018-05-11T03:03:00.453Z,33.90
2018-05-11T03:04:00.466Z,32.90
2018-05-11T03:05:00.463Z,31.30
2018-05-11T03:06:00.466Z,36.20
2018-05-11T03:07:00.498Z,33.80
2018-05-11T03:08:00.465Z,37.80
2018-05-11T03:09:00.457Z,31.90
2018-05-11T03:10:00.477Z,35.70
2018-05-11T03:11:01.102Z,38.10
2018-05-11T03:12:00.468Z,39.10
2018-05-11T03:13:00.467Z,36.50
2018-05-11T03:14:00.473Z,37.70
2018-05-11T03:15:00.467Z,35.70
2018-05-11T03:16:00.473Z,35.00
2018-05-11T03:17:00.485Z,35.80
2018-05-11T03:18:00.478Z,34.60
2018-05-11T03:19:00.477Z,34.80
2018-05-11T03:20:00.504Z,35.90
2018-05-11T03:21:00.491Z,34.20
2018-05-11T03:22:00.487Z,32.40
2018-05-11T03:23:00.498Z,33.20
2018-05-11T03:24:00.499Z,31.90
2018-05-11T03:25:00.521Z,34.60
2018-05-11T03:26:00.507Z,34.50
2018-05-11T03:27:00.477Z,33.40
2018-05-11T03:28:00.512Z,31.90
2018-05-11T03:29:00.489Z,30.60
2018-05-11T03:30:00.487Z,31.00
2018-05-11T03:31:00.487Z,30.70
2018-05-11T03:32:00.499Z,35.10
2018-05-11T03:33:00.497Z,36.00
2018-05-11T03:34:00.515Z,36.20
2018-05-11T03:35:00.502Z,34.10
2018-05-11T03:36:00.519Z,33.90
2018-05-11T03:37:00.505Z,35.60
2018-05-11T03:38:00.520Z,34.30
2018-05-11T03:39:00.507Z,34.50
2018-05-11T03:40:00.522Z,34.70
2018-05-11T03:41:00.499Z,34.60
2018-05-11T03:42:00.510Z,34.70
2018-05-11T03:43:00.527Z,34.60
2018-05-11T03:44:00.505Z,34.50
2018-05-11T03:45:00.513Z,32.70
2018-05-11T03:46:00.516Z,32.70
2018-05-11T03:47:00.551Z,32.50
2018-05-11T03:48:00.525Z,33.80
2018-05-11T03:49:00.535Z,33.60
2018-05-11T03:50:00.535Z,31.80
2018-05-11T03:51:00.540Z,34.50
2018-05-11T03:52:00.514Z,34.80
2018-05-11T03:53:00.535Z,35.10
2018-05-11T03:54:00.535Z,38.10
2018-05-11T03:55:00.530Z,36.20
2018-05-11T03:56:00.541Z,37.30
2018-05-11T03:57:00.553Z,40.50
2018-05-11T03:58:00.531Z,40.10
2018-05-11T03:59:00.527Z,40.30
2018-05-11T04:00:00.589Z,40.50
2018-05-11T04:01:00.552Z,39.00
2018-05-11T04:02:00.587Z,37.30
2018-05-11T04:03:00.555Z,37.10
2018-05-11T04:04:00.534Z,33.30
2018-05-11T04:05:00.540Z,34.20
2018-05-11T04:06:00.553Z,34.80
2018-05-11T04:07:00.564Z,35.40
2018-05-11T04:08:00.561Z,36.50
2018-05-11T04:09:00.538Z,34.50
2018-05-11T04:10:00.542Z,37.00
2018-05-11T04:11:00.548Z,35.50
2018-05-11T04:12:00.559Z,35.50
2018-05-11T04:13:00.546Z,35.00
2018-05-11T04:14:00.582Z,35.70
2018-05-11T04:15:00.554Z,35.30
2018-05-11T04:16:00.548Z,34.20
2018-05-11T04:17:00.569Z,35.90
2018-05-11T04:18:00.585Z,34.10
2018-05-11T04:19:00.561Z,33.30
2018-05-11T04:20:00.559Z,34.10
2018-05-11T04:21:00.562Z,34.60
2018-05-11T04:22:00.562Z,35.00
2018-05-11T04:23:00.579Z,33.10
2018-05-11T04:24:00.568Z,33.60
2018-05-11T04:25:00.562Z,32.10
2018-05-11T04:26:00.586Z,33.30
2018-05-11T04:27:00.575Z,32.90
2018-05-11T04:28:00.577Z,32.10
2018-05-11T04:29:00.571Z,32.40
2018-05-11T04:30:00.602Z,33.10
2018-05-11T04:31:00.584Z,33.00
2018-05-11T04:32:00.601Z,31.80
2018-05-11T04:33:00.575Z,32.70
2018-05-11T04:34:00.600Z,33.40
2018-05-11T04:35:00.615Z,33.40
2018-05-11T04:36:00.585Z,33.10
2018-05-11T04:37:00.622Z,32.40
2018-05-11T04:38:00.603Z,31.40
2018-05-11T04:39:00.596Z,30.70
2018-05-11T04:40:00.587Z,31.50
2018-05-11T04:41:00.590Z,32.90
2018-05-11T04:42:00.605Z,30.30
2018-05-11T04:43:00.587Z,30.30
2018-05-11T04:44:00.623Z,31.30
2018-05-11T04:45:00.599Z,31.50
2018-05-11T04:46:01.110Z,30.80
2018-05-11T04:47:00.617Z,31.40
2018-05-11T04:48:00.618Z,32.40
2018-05-11T04:49:00.628Z,31.10
2018-05-11T04:50:00.660Z,32.70
2018-05-11T04:51:00.621Z,33.60
2018-05-11T04:52:00.605Z,32.50
2018-05-11T04:53:00.644Z,32.90
2018-05-11T04:54:00.612Z,32.30
2018-05-11T04:55:00.622Z,31.70
2018-05-11T04:56:00.619Z,32.40
2018-05-11T04:57:00.631Z,31.90
2018-05-11T04:58:00.625Z,33.90
2018-05-11T04:59:00.625Z,31.30
2018-05-11T05:00:00.628Z,31.40
2018-05-11T05:01:00.628Z,30.10
2018-05-11T05:02:00.634Z,29.60
2018-05-11T05:03:00.633Z,28.70
2018-05-11T05:04:00.652Z,28.60
2018-05-11T05:05:00.648Z,32.20
2018-05-11T05:06:00.632Z,30.30
2018-05-11T05:07:00.682Z,29.50
2018-05-11T05:08:00.646Z,29.00
2018-05-11T05:09:00.653Z,28.90
2018-05-11T05:10:00.672Z,28.20
2018-05-11T05:11:00.648Z,29.10
2018-05-11T05:12:00.693Z,29.70
2018-05-11T05:13:00.646Z,29.40
2018-05-11T05:14:00.660Z,28.00
2018-05-11T05:15:00.664Z,28.00
2018-05-11T05:16:00.659Z,28.50
2018-05-11T05:17:00.654Z,30.30
2018-05-11T05:18:00.649Z,29.20
2018-05-11T05:19:00.657Z,29.00
2018-05-11T05:20:00.675Z,28.10
2018-05-11T05:21:00.677Z,28.30
2018-05-11T05:22:00.710Z,29.40
2018-05-11T05:23:00.684Z,29.80
2018-05-11T05:24:00.669Z,29.90
2018-05-11T05:25:00.680Z,31.80
2018-05-11T05:26:00.686Z,30.70
2018-05-11T05:27:00.673Z,29.80
2018-05-11T05:28:00.716Z,29.30
2018-05-11T05:29:00.692Z,31.20
2018-05-11T05:30:00.703Z,31.20
2018-05-11T05:31:00.720Z,32.70
2018-05-11T05:32:00.701Z,32.60
2018-05-11T05:33:00.763Z,32.70
2018-05-11T05:34:00.686Z,32.80
2018-05-11T05:35:00.698Z,31.40
2018-05-11T05:36:00.688Z,30.30
2018-05-11T05:37:00.689Z,31.40
2018-05-11T05:38:00.695Z,31.00
2018-05-11T05:39:00.714Z,31.60
2018-05-11T05:40:00.715Z,30.50
2018-05-11T05:41:00.724Z,30.40
2018-05-11T05:42:00.702Z,29.90
2018-05-11T05:43:00.732Z,30.30
2018-05-11T05:44:00.707Z,30.30
2018-05-11T05:45:00.705Z,30.80
2018-05-11T05:46:00.739Z,30.60
2018-05-11T05:47:00.731Z,31.40
2018-05-11T05:48:00.722Z,31.50
2018-05-11T05:49:00.744Z,31.10
2018-05-11T05:50:00.750Z,30.40
2018-05-11T05:51:00.756Z,29.70
2018-05-11T05:52:00.849Z,30.20
2018-05-11T05:53:00.725Z,29.00
2018-05-11T05:54:00.748Z,30.90
2018-05-11T05:55:00.771Z,31.00
2018-05-11T05:56:00.743Z,31.90
2018-05-11T05:57:00.737Z,32.80
2018-05-11T05:58:00.745Z,30.90
2018-05-11T05:59:00.780Z,30.50
2018-05-11T06:00:00.758Z,32.60
2018-05-11T06:01:00.759Z,33.20
2018-05-11T06:02:00.755Z,32.50
2018-05-11T06:03:00.746Z,33.00
2018-05-11T06:04:00.741Z,31.50
2018-05-11T06:05:00.743Z,32.50
2018-05-11T06:06:00.762Z,31.90
2018-05-11T06:07:00.752Z,31.60
2018-05-11T06:08:00.752Z,31.40
2018-05-11T06:09:00.799Z,32.80
2018-05-11T06:10:00.789Z,32.60
2018-05-11T06:11:00.880Z,31.40
2018-05-11T06:12:00.798Z,30.80
2018-05-11T06:13:00.778Z,32.00
2018-05-11T06:14:00.796Z,32.80
2018-05-11T06:15:00.778Z,32.30
2018-05-11T06:16:00.778Z,31.50
2018-05-11T06:17:00.778Z,34.00
2018-05-11T06:18:00.803Z,34.50
2018-05-11T06:19:00.779Z,31.40
2018-05-11T06:20:00.802Z,31.60
2018-05-11T06:21:00.777Z,31.90
2018-05-11T06:22:00.862Z,30.20
2018-05-11T06:23:00.788Z,28.00
2018-05-11T06:24:00.944Z,27.30
2018-05-11T06:25:00.798Z,27.80
2018-05-11T06:26:00.816Z,27.30
2018-05-11T06:27:00.798Z,29.10
2018-05-11T06:28:00.807Z,29.70
2018-05-11T06:29:00.829Z,28.20
2018-05-11T06:30:00.810Z,29.10
2018-05-11T06:31:00.806Z,28.90
2018-05-11T06:32:00.802Z,28.60
2018-05-11T06:33:00.807Z,28.90
2018-05-11T06:34:00.817Z,29.00
2018-05-11T06:35:00.847Z,30.00
2018-05-11T06:36:00.849Z,30.20
2018-05-11T06:37:00.945Z,29.40
2018-05-11T06:38:00.813Z,28.70
2018-05-11T06:39:00.858Z,29.40
2018-05-11T06:40:00.860Z,29.70
2018-05-11T06:41:00.843Z,31.10
2018-05-11T06:42:00.883Z,30.00
2018-05-11T06:43:00.832Z,30.30
2018-05-11T06:44:00.853Z,30.30
2018-05-11T06:45:00.849Z,30.90
2018-05-11T06:46:00.881Z,30.60
2018-05-11T06:47:00.885Z,31.20
2018-05-11T06:48:00.888Z,32.90
2018-05-11T06:49:00.873Z,31.90
2018-05-11T06:50:00.922Z,31.00
2018-05-11T06:51:00.852Z,28.90
2018-05-11T06:52:00.878Z,29.40
2018-05-11T06:53:00.861Z,30.60
2018-05-11T06:54:00.855Z,29.50
2018-05-11T06:55:00.874Z,28.00
2018-05-11T06:56:00.870Z,29.70
2018-05-11T06:57:00.868Z,29.30
2018-05-11T06:58:00.862Z,28.10
2018-05-11T06:59:00.862Z,29.00
2018-05-11T07:00:00.861Z,29.90
2018-05-11T07:01:00.885Z,30.10
2018-05-11T07:02:00.905Z,29.70
2018-05-11T07:03:00.868Z,29.90
2018-05-11T07:04:00.872Z,29.60
2018-05-11T07:05:00.878Z,30.50
2018-05-11T07:06:00.925Z,30.90
2018-05-11T07:07:00.887Z,30.10
2018-05-11T07:08:01.058Z,30.20
2018-05-11T07:09:00.895Z,30.40
2018-05-11T07:10:00.895Z,29.00
2018-05-11T07:11:00.889Z,30.50
2018-05-11T07:12:00.895Z,29.60
2018-05-11T07:13:00.940Z,30.60
2018-05-11T07:14:00.909Z,29.60
2018-05-11T07:15:00.908Z,29.00
2018-05-11T07:16:00.931Z,30.20
2018-05-11T07:17:00.947Z,27.90
2018-05-11T07:18:00.904Z,29.40
2018-05-11T07:19:00.905Z,28.90
2018-05-11T07:20:00.944Z,28.80
2018-05-11T07:21:01.653Z,30.00
2018-05-11T07:22:00.926Z,29.20
2018-05-11T07:23:00.919Z,30.50
2018-05-11T07:24:00.930Z,29.20
2018-05-11T07:25:00.947Z,28.10
2018-05-11T07:26:00.966Z,29.20
2018-05-11T07:27:00.940Z,28.40
2018-05-11T07:28:00.959Z,28.30
2018-05-11T07:29:00.953Z,29.20
2018-05-11T07:30:00.955Z,30.00
2018-05-11T07:31:00.965Z,29.70
2018-05-11T07:32:00.937Z,29.90
2018-05-11T07:33:00.942Z,28.80
2018-05-11T07:34:00.997Z,29.40
2018-05-11T07:35:00.996Z,30.10
2018-05-11T07:36:00.953Z,31.70
2018-05-11T07:37:00.979Z,31.50
2018-05-11T07:38:00.973Z,29.80
2018-05-11T07:39:00.954Z,30.40
2018-05-11T07:40:01.017Z,26.90
2018-05-11T07:41:01.036Z,27.20
2018-05-11T07:42:00.969Z,29.00
2018-05-11T07:43:02.112Z,27.30
2018-05-11T07:44:00.996Z,26.60
2018-05-11T07:45:00.976Z,27.30
2018-05-11T07:46:01.032Z,25.90
2018-05-11T07:47:01.044Z,26.20
2018-05-11T07:48:00.991Z,26.90
2018-05-11T07:49:01.661Z,25.40
2018-05-11T07:50:01.006Z,27.10
2018-05-11T07:51:01.157Z,27.70
2018-05-11T07:52:01.005Z,26.10
2018-05-11T07:53:01.015Z,26.00
2018-05-11T07:54:01.021Z,26.10
2018-05-11T07:55:01.027Z,26.80
2018-05-11T07:56:00.994Z,25.30
2018-05-11T07:57:01.056Z,28.20
2018-05-11T07:58:01.005Z,27.20
2018-05-11T07:59:01.020Z,26.80
2018-05-11T08:00:01.077Z,25.90
2018-05-11T08:01:01.060Z,26.00
2018-05-11T08:02:01.075Z,26.50
2018-05-11T08:03:01.049Z,26.50
2018-05-11T08:04:01.099Z,26.70
2018-05-11T08:05:01.036Z,26.80
2018-05-11T08:06:01.675Z,24.50
2018-05-11T08:07:01.077Z,23.90
2018-05-11T08:08:01.048Z,24.40
2018-05-11T08:09:01.047Z,24.40
2018-05-11T08:10:01.667Z,23.20
2018-05-11T08:11:01.105Z,23.00
2018-05-11T08:12:01.143Z,22.30
2018-05-11T08:13:01.063Z,23.00
2018-05-11T08:14:01.070Z,22.60
2018-05-11T08:15:01.171Z,22.20
2018-05-11T08:16:01.095Z,21.20
2018-05-11T08:17:01.105Z,21.10
2018-05-11T08:18:01.069Z,20.60
2018-05-11T08:19:02.417Z,19.20
2018-05-11T08:20:01.207Z,20.40
2018-05-11T08:21:01.139Z,19.80
2018-05-11T08:22:03.918Z,19.90
2018-05-11T08:23:01.096Z,20.10
2018-05-11T08:24:01.162Z,21.20
2018-05-11T08:25:01.151Z,20.50
2018-05-11T08:26:01.164Z,18.90
2018-05-11T08:27:01.170Z,18.90
2018-05-11T08:28:01.138Z,19.10
2018-05-11T08:29:01.117Z,19.40
2018-05-11T08:30:01.123Z,18.00
2018-05-11T08:31:01.172Z,18.60
2018-05-11T08:32:01.155Z,17.80
2018-05-11T08:33:01.142Z,18.20
2018-05-11T08:34:01.176Z,17.90
2018-05-11T08:35:01.247Z,18.70
2018-05-11T08:36:01.197Z,16.80
2018-05-11T08:37:01.186Z,18.40
2018-05-11T08:38:01.199Z,18.00
2018-05-11T08:39:01.201Z,17.30
2018-05-11T08:40:01.307Z,16.80
2018-05-11T08:41:01.274Z,16.90
2018-05-11T08:42:01.372Z,16.30
2018-05-11T08:43:01.327Z,16.50
2018-05-11T08:44:01.306Z,17.60
2018-05-11T08:45:01.321Z,17.70
2018-05-11T08:46:01.302Z,18.80
2018-05-11T08:47:01.367Z,19.00
2018-05-11T08:48:01.326Z,18.70
2018-05-11T08:49:01.368Z,19.40
2018-05-11T08:50:02.200Z,19.20
2018-05-11T08:51:01.365Z,18.70
2018-05-11T08:52:02.607Z,17.50
2018-05-11T08:53:01.467Z,17.10
2018-05-11T08:54:02.194Z,17.70
2018-05-11T08:55:01.501Z,17.40
2018-05-11T08:56:01.442Z,16.50
2018-05-11T08:57:01.855Z,16.50
2018-05-11T08:58:01.433Z,16.70
2018-05-11T08:59:01.444Z,15.80
2018-05-11T09:00:01.431Z,17.10
2018-05-11T09:01:01.560Z,16.20
2018-05-11T09:02:01.430Z,15.70
2018-05-11T09:03:01.505Z,14.60
2018-05-11T09:04:01.497Z,15.40
2018-05-11T09:05:01.613Z,16.20
2018-05-11T09:06:01.468Z,15.40
2018-05-11T09:07:01.505Z,15.00
2018-05-11T09:08:01.497Z,15.30
2018-05-11T09:09:01.519Z,15.60
2018-05-11T09:10:01.606Z,16.30
2018-05-11T09:11:01.582Z,16.10
2018-05-11T09:12:01.562Z,15.80
2018-05-11T09:13:01.623Z,15.60
2018-05-11T09:14:01.597Z,16.10
2018-05-11T09:15:01.585Z,15.80
2018-05-11T09:16:01.668Z,15.20
2018-05-11T09:17:01.692Z,14.70
2018-05-11T09:18:01.666Z,15.20
2018-05-11T09:19:01.674Z,15.10
2018-05-11T09:20:01.664Z,14.50
2018-05-11T09:21:01.687Z,15.00
2018-05-11T09:22:01.784Z,14.20
2018-05-11T09:23:01.788Z,14.30
2018-05-11T09:24:01.720Z,14.50
2018-05-11T09:25:01.767Z,15.60
2018-05-11T09:26:01.814Z,15.60
2018-05-11T09:27:01.885Z,17.00
2018-05-11T09:28:01.830Z,16.90
2018-05-11T09:29:01.774Z,17.10
2018-05-11T09:30:01.822Z,16.80
2018-05-11T09:31:01.880Z,15.70
2018-05-11T09:32:01.908Z,16.10
2018-05-11T09:33:01.838Z,16.00
2018-05-11T09:34:01.905Z,17.10
2018-05-11T09:35:01.921Z,17.90
2018-05-11T09:36:01.838Z,17.60
2018-05-11T09:37:02.097Z,17.20
2018-05-11T09:38:01.926Z,17.80
2018-05-11T09:39:02.796Z,16.70
2018-05-11T09:40:01.913Z,17.50
2018-05-11T09:41:01.903Z,17.30
2018-05-11T09:42:01.980Z,15.90
2018-05-11T09:43:01.908Z,13.00
2018-05-11T09:44:01.978Z,14.40
2018-05-11T09:45:02.001Z,15.60
2018-05-11T09:46:01.941Z,14.70
2018-05-11T09:47:01.934Z,15.40
2018-05-11T09:48:02.727Z,15.60
2018-05-11T09:49:02.155Z,14.20
2018-05-11T09:50:02.236Z,13.40
2018-05-11T09:51:02.103Z,15.00
2018-05-11T09:52:02.241Z,15.20
2018-05-11T09:53:02.165Z,17.20
2018-05-11T09:54:02.052Z,17.00
2018-05-11T09:55:02.176Z,18.40
2018-05-11T09:56:02.068Z,18.50
2018-05-11T09:57:02.035Z,16.20
2018-05-11T09:58:02.731Z,16.50
2018-05-11T09:59:02.052Z,16.30
2018-05-11T10:00:02.175Z,16.40
2018-05-11T10:01:02.114Z,14.60
2018-05-11T10:02:02.110Z,14.50
2018-05-11T10:03:02.142Z,13.00
2018-05-11T10:04:02.081Z,11.70
2018-05-11T10:05:02.092Z,10.00
2018-05-11T10:06:02.102Z,8.90
2018-05-11T10:07:02.144Z,10.90
2018-05-11T10:08:02.129Z,11.30
2018-05-11T10:09:02.153Z,12.40
2018-05-11T10:10:02.167Z,13.80
2018-05-11T10:11:02.288Z,13.50
2018-05-11T10:12:02.166Z,14.20
2018-05-11T10:13:02.212Z,13.90
2018-05-11T10:14:02.215Z,13.50
2018-05-11T10:15:02.257Z,12.70
2018-05-11T10:16:02.274Z,13.30
2018-05-11T10:17:02.265Z,12.50
2018-05-11T10:18:02.250Z,13.40
2018-05-11T10:19:02.252Z,13.30
2018-05-11T10:20:02.296Z,12.70
2018-05-11T10:21:02.314Z,13.70
2018-05-11T10:22:02.331Z,12.70
2018-05-11T10:23:02.348Z,13.50
2018-05-11T10:24:02.340Z,13.80
2018-05-11T10:25:02.338Z,13.00
2018-05-11T10:26:02.379Z,13.10
2018-05-11T10:27:02.359Z,12.90
2018-05-11T10:28:02.436Z,13.60
2018-05-11T10:29:02.483Z,12.80
2018-05-11T10:30:02.481Z,13.20
2018-05-11T10:31:02.461Z,13.50
2018-05-11T10:32:02.445Z,13.10
2018-05-11T10:33:02.942Z,13.90
2018-05-11T10:34:02.468Z,14.10
2018-05-11T10:35:02.462Z,14.30
2018-05-11T10:36:02.501Z,13.90
2018-05-11T10:37:02.513Z,14.40
2018-05-11T10:38:02.550Z,14.60
2018-05-11T10:39:02.530Z,14.10
2018-05-11T10:40:02.546Z,14.00
2018-05-11T10:41:02.547Z,14.20
2018-05-11T10:42:02.557Z,14.20
2018-05-11T10:43:02.657Z,13.70
2018-05-11T10:44:02.588Z,13.80
2018-05-11T10:45:02.584Z,13.70
2018-05-11T10:46:02.618Z,14.50
2018-05-11T10:47:03.334Z,14.60
2018-05-11T10:48:02.641Z,15.00
2018-05-11T10:49:02.631Z,14.10
2018-05-11T10:50:02.647Z,14.50
2018-05-11T10:51:02.693Z,15.50
2018-05-11T10:52:02.656Z,15.80
2018-05-11T10:53:02.703Z,16.00
2018-05-11T10:54:02.719Z,16.10
2018-05-11T10:55:02.714Z,16.20
2018-05-11T10:56:02.737Z,16.00
2018-05-11T10:57:02.745Z,15.40
2018-05-11T10:58:02.740Z,16.10
2018-05-11T10:59:02.729Z,15.90
2018-05-11T11:00:04.766Z,16.70
2018-05-11T11:01:02.736Z,16.40
2018-05-11T11:02:02.760Z,15.60
2018-05-11T11:03:02.788Z,15.80
2018-05-11T11:04:02.775Z,16.60
2018-05-11T11:05:02.759Z,15.70
2018-05-11T11:06:02.827Z,15.70
2018-05-11T11:07:02.796Z,15.70
2018-05-11T11:08:02.866Z,15.60
2018-05-11T11:09:02.841Z,24.80
2018-05-11T11:10:02.794Z,15.30
2018-05-11T11:11:02.800Z,15.60
2018-05-11T11:12:02.837Z,16.40
2018-05-11T11:13:02.814Z,15.90
2018-05-11T11:14:02.847Z,14.90
2018-05-11T11:15:02.844Z,14.00
2018-05-11T11:16:02.845Z,13.30
2018-05-11T11:17:02.856Z,14.40
2018-05-11T11:18:02.856Z,15.00
2018-05-11T11:19:02.875Z,14.20
2018-05-11T11:20:02.956Z,14.10
2018-05-11T11:21:02.887Z,14.50
2018-05-11T11:22:02.899Z,15.00
2018-05-11T11:23:02.913Z,14.30
2018-05-11T11:24:02.950Z,15.60
2018-05-11T11:25:02.940Z,14.60
2018-05-11T11:26:02.954Z,15.90
2018-05-11T11:27:02.911Z,14.50
2018-05-11T11:28:02.951Z,15.80
2018-05-11T11:29:02.915Z,14.70
2018-05-11T11:30:02.954Z,14.80
2018-05-11T11:31:02.937Z,14.40
2018-05-11T11:32:02.950Z,14.60
2018-05-11T11:33:02.939Z,15.80
2018-05-11T11:34:02.991Z,14.80
2018-05-11T11:35:02.954Z,15.10
2018-05-11T11:36:02.957Z,14.50
2018-05-11T11:37:02.973Z,14.90
2018-05-11T11:38:03.075Z,14.30
2018-05-11T11:39:02.975Z,13.50
2018-05-11T11:40:03.028Z,14.70
2018-05-11T11:41:02.982Z,15.40
2018-05-11T11:42:03.063Z,16.50
2018-05-11T11:43:02.991Z,16.60
2018-05-11T11:44:03.024Z,15.90
2018-05-11T11:45:03.038Z,15.90
2018-05-11T11:46:03.003Z,16.10
2018-05-11T11:47:03.097Z,14.80
2018-05-11T11:48:03.876Z,14.80
2018-05-11T11:49:03.023Z,14.20
2018-05-11T11:50:03.058Z,14.70
2018-05-11T11:51:03.061Z,14.40
2018-05-11T11:52:03.042Z,15.10
2018-05-11T11:53:03.073Z,14.70
2018-05-11T11:54:03.048Z,15.10
2018-05-11T11:55:03.050Z,15.60
2018-05-11T11:56:03.797Z,15.70
2018-05-11T11:57:03.068Z,16.40
2018-05-11T11:58:03.093Z,14.90
2018-05-11T11:59:03.065Z,15.70
2018-05-11T12:00:03.080Z,14.80
2018-05-11T12:01:03.797Z,14.20
2018-05-11T12:02:03.273Z,14.80
2018-05-11T12:03:03.131Z,15.00
2018-05-11T12:04:03.105Z,14.50
2018-05-11T12:05:03.193Z,14.70
2018-05-11T12:06:03.114Z,13.60
2018-05-11T12:07:03.121Z,13.80
2018-05-11T12:08:03.135Z,13.80
2018-05-11T12:09:03.262Z,14.40
2018-05-11T12:10:03.191Z,16.40
2018-05-11T12:11:03.208Z,15.90
2018-05-11T12:12:03.195Z,15.90
2018-05-11T12:13:03.131Z,15.70
2018-05-11T12:14:03.178Z,15.70
2018-05-11T12:15:03.145Z,16.20
2018-05-11T12:16:03.169Z,17.00
2018-05-11T12:17:03.185Z,17.40
2018-05-11T12:18:03.187Z,18.10
2018-05-11T12:19:03.155Z,17.60
2018-05-11T12:20:03.175Z,17.60
2018-05-11T12:21:03.306Z,16.90
2018-05-11T12:22:03.228Z,17.60
2018-05-11T12:23:03.203Z,17.90
2018-05-11T12:24:03.217Z,20.00
2018-05-11T12:25:03.204Z,18.30
2018-05-11T12:26:03.230Z,18.80
2018-05-11T12:27:03.195Z,17.70
2018-05-11T12:28:03.219Z,18.80
2018-05-11T12:29:03.220Z,19.30
2018-05-11T12:30:03.213Z,20.90
2018-05-11T12:31:03.232Z,20.90
2018-05-11T12:32:03.236Z,19.40
2018-05-11T12:33:03.337Z,18.90
2018-05-11T12:34:03.230Z,19.40
2018-05-11T12:35:03.246Z,18.90
2018-05-11T12:36:03.487Z,19.00
2018-05-11T12:37:03.225Z,19.30
2018-05-11T12:38:03.236Z,21.10
2018-05-11T12:39:04.325Z,21.30
2018-05-11T12:40:03.306Z,20.10
2018-05-11T12:41:03.338Z,20.10
2018-05-11T12:42:03.264Z,20.30
2018-05-11T12:43:05.895Z,20.40
2018-05-11T12:44:03.280Z,20.10
2018-05-11T12:45:03.276Z,20.00
2018-05-11T12:46:03.296Z,19.50
2018-05-11T12:47:03.277Z,20.00
2018-05-11T12:48:03.290Z,19.90
2018-05-11T12:49:03.287Z,19.30
2018-05-11T12:50:03.281Z,19.50
2018-05-11T12:51:03.290Z,19.30
2018-05-11T12:52:03.373Z,19.80